createdAt,value
2023-04-18T00:00:32.013Z,101865.28
2023-04-18T00:03:00.911Z,101868.41
2023-04-18T00:05:29.733Z,101869.06
2023-04-18T00:07:56.633Z,101865.75
2023-04-18T00:10:23.190Z,101869.00
2023-04-18T00:12:49.680Z,101870.28
2023-04-18T00:15:16.209Z,101861.91
2023-04-18T00:17:42.931Z,101868.34
2023-04-18T00:20:11.156Z,101861.59
2023-04-18T00:22:42.404Z,101857.97
2023-04-18T00:25:09.163Z,101866.50
2023-04-18T00:27:35.502Z,101861.22
2023-04-18T00:30:01.889Z,101863.59
2023-04-18T00:32:28.402Z,101863.44
2023-04-18T00:34:54.845Z,101861.59
2023-04-18T00:37:21.222Z,101863.66
2023-04-18T00:39:49.038Z,101861.78
2023-04-18T00:42:15.405Z,101863.78
2023-04-18T00:44:41.738Z,101851.72
2023-04-18T00:47:09.488Z,101858.09
2023-04-18T00:49:35.865Z,101850.41
2023-04-18T00:52:02.205Z,101839.81
2023-04-18T00:54:28.529Z,101849.97
2023-04-18T00:56:54.905Z,101844.53
2023-04-18T00:59:22.043Z,101847.91
2023-04-18T01:01:48.466Z,101843.22
2023-04-18T01:04:15.278Z,101845.00
2023-04-18T01:06:44.001Z,101844.13
2023-04-18T01:09:10.836Z,101837.97
2023-04-18T01:11:37.186Z,101845.28
2023-04-18T01:14:03.638Z,101843.53
2023-04-18T01:16:30.060Z,101835.06
2023-04-18T01:18:57.018Z,101838.03
2023-04-18T01:21:23.431Z,101839.97
2023-04-18T01:23:49.836Z,101832.91
2023-04-18T01:26:16.229Z,101836.59
2023-04-18T01:28:42.620Z,101840.91
2023-04-18T01:31:09.007Z,101834.16
2023-04-18T01:33:36.558Z,101827.63
2023-04-18T01:36:02.938Z,101826.84
2023-04-18T01:38:30.478Z,101832.16
2023-04-18T01:40:56.922Z,101831.94
2023-04-18T01:43:23.217Z,101825.97
2023-04-18T01:45:49.600Z,101819.66
2023-04-18T01:48:15.998Z,101822.16
2023-04-18T01:50:42.503Z,101815.56
2023-04-18T01:53:10.275Z,101816.00
2023-04-18T01:55:36.885Z,101817.97
2023-04-18T01:58:03.224Z,101822.00
2023-04-18T02:00:29.655Z,101814.13
2023-04-18T02:02:56.252Z,101812.84
2023-04-18T02:05:22.723Z,101820.47
2023-04-18T02:07:50.208Z,101809.72
2023-04-18T02:10:17.128Z,101809.34
2023-04-18T02:12:44.829Z,101812.44
2023-04-18T02:15:11.191Z,101814.63
2023-04-18T02:17:37.962Z,101807.31
2023-04-18T02:20:04.389Z,101810.22
2023-04-18T02:22:30.946Z,101810.22
2023-04-18T02:25:00.130Z,101806.63
2023-04-18T02:27:26.529Z,101809.09
2023-04-18T02:29:56.522Z,101814.31
2023-04-18T02:32:22.959Z,101805.63
2023-04-18T02:34:49.328Z,101805.63
2023-04-18T02:37:16.068Z,101803.88
2023-04-18T02:39:42.416Z,101809.78
2023-04-18T02:42:08.803Z,101813.41
2023-04-18T02:44:35.288Z,101811.22
2023-04-18T02:47:01.817Z,101820.13
2023-04-18T02:49:29.269Z,101802.19
2023-04-18T02:51:58.694Z,101805.75
2023-04-18T02:54:25.129Z,101802.28
2023-04-18T02:57:11.795Z,101809.09
2023-04-18T02:59:46.994Z,101798.59
2023-04-18T03:02:30.858Z,101805.19
2023-04-18T03:05:04.044Z,101801.56
2023-04-18T03:07:30.913Z,101806.19
2023-04-18T03:09:58.438Z,101804.28
2023-04-18T03:12:29.645Z,101807.81
2023-04-18T03:14:56.327Z,101805.16
2023-04-18T03:17:23.109Z,101811.16
2023-04-18T03:19:49.817Z,101804.69
2023-04-18T03:22:19.231Z,101805.09
2023-04-18T03:24:52.368Z,101818.09
2023-04-18T03:27:20.376Z,101814.50
2023-04-18T03:29:47.446Z,101815.28
2023-04-18T03:32:14.650Z,101809.59
2023-04-18T03:34:40.989Z,101813.13
2023-04-18T03:37:08.368Z,101812.53
2023-04-18T03:39:40.788Z,101812.84
2023-04-18T03:42:07.688Z,101827.09
2023-04-18T03:44:34.822Z,101818.41
2023-04-18T03:47:01.280Z,101826.25
2023-04-18T03:49:29.885Z,101814.75
2023-04-18T03:51:56.490Z,101822.94
2023-04-18T03:54:24.163Z,101817.88
2023-04-18T03:56:50.564Z,101815.00
2023-04-18T03:59:17.854Z,101822.22
2023-04-18T04:01:48.599Z,101817.91
2023-04-18T04:04:15.781Z,101817.22
2023-04-18T04:06:42.615Z,101815.13
2023-04-18T04:09:08.990Z,101817.72
2023-04-18T04:11:35.496Z,101824.31
2023-04-18T04:14:02.400Z,101822.31
2023-04-18T04:16:34.983Z,101828.44
2023-04-18T04:19:02.239Z,101824.03
2023-04-18T04:21:36.242Z,101822.06
2023-04-18T04:24:03.890Z,101825.06
2023-04-18T04:26:35.765Z,101824.28
2023-04-18T04:29:11.721Z,101827.50
2023-04-18T04:31:39.102Z,101831.69
2023-04-18T04:34:06.216Z,101833.72
2023-04-18T04:36:33.437Z,101835.75
2023-04-18T04:39:04.219Z,101833.38
2023-04-18T04:41:53.485Z,101837.03
2023-04-18T04:44:26.109Z,101835.81
2023-04-18T04:46:54.526Z,101838.19
2023-04-18T04:49:25.851Z,101840.47
2023-04-18T04:51:52.250Z,101841.66
2023-04-18T04:54:19.954Z,101835.56
2023-04-18T04:56:46.296Z,101837.84
2023-04-18T04:59:12.983Z,101846.06
2023-04-18T05:01:41.463Z,101844.88
2023-04-18T05:04:07.990Z,101857.38
2023-04-18T05:06:34.386Z,101858.69
2023-04-18T05:09:01.200Z,101856.75
2023-04-18T05:11:27.678Z,101852.69
2023-04-18T05:13:54.062Z,101859.56
2023-04-18T05:16:20.880Z,101856.88
2023-04-18T05:18:47.251Z,101857.94
2023-04-18T05:21:13.701Z,101856.66
2023-04-18T05:23:40.080Z,101861.59
2023-04-18T05:26:06.484Z,101862.72
2023-04-18T05:28:32.840Z,101865.09
2023-04-18T05:31:02.193Z,101865.41
2023-04-18T05:33:28.703Z,101868.22
2023-04-18T05:35:55.546Z,101874.72
2023-04-18T05:38:21.982Z,101880.66
2023-04-18T05:40:51.051Z,101871.19
2023-04-18T05:43:17.530Z,101869.19
2023-04-18T05:45:43.903Z,101877.25
2023-04-18T05:48:10.318Z,101885.41
2023-04-18T05:50:36.777Z,101882.63
2023-04-18T05:53:03.161Z,101886.81
2023-04-18T05:55:29.513Z,101892.06
2023-04-18T05:57:55.903Z,101898.00
2023-04-18T06:00:22.320Z,101894.22
2023-04-18T06:02:49.664Z,101895.03
2023-04-18T06:05:16.638Z,101900.06
2023-04-18T06:07:43.168Z,101875.19
2023-04-18T06:10:13.227Z,101896.09
2023-04-18T06:12:39.666Z,101894.41
2023-04-18T06:15:06.495Z,101907.06
2023-04-18T06:17:33.694Z,101894.56
2023-04-18T06:20:00.170Z,101906.50
2023-04-18T06:22:26.547Z,101911.03
2023-04-18T06:24:55.325Z,101909.16
2023-04-18T06:27:30.466Z,101913.00
2023-04-18T06:29:58.106Z,101901.91
2023-04-18T06:32:24.736Z,101916.28
2023-04-18T06:34:52.973Z,101917.13
2023-04-18T06:37:19.457Z,101919.22
2023-04-18T06:39:46.037Z,101914.84
2023-04-18T06:42:12.461Z,101912.59
2023-04-18T06:44:44.146Z,101912.59
2023-04-18T06:47:10.574Z,101921.66
2023-04-18T06:49:37.102Z,101928.34
2023-04-18T06:52:03.590Z,101919.94
2023-04-18T06:54:30.015Z,101909.69
2023-04-18T06:56:57.279Z,101922.44
2023-04-18T06:59:23.706Z,101927.63
2023-04-18T07:01:50.725Z,101925.69
2023-04-18T07:04:17.430Z,101925.31
2023-04-18T07:06:44.083Z,101930.00
2023-04-18T07:09:10.477Z,101937.97
2023-04-18T07:11:36.894Z,101942.63
2023-04-18T07:14:03.405Z,101930.22
2023-04-18T07:16:30.007Z,101946.16
2023-04-18T07:18:56.500Z,101951.88
2023-04-18T07:21:23.829Z,101946.00
2023-04-18T07:23:50.234Z,101957.72
2023-04-18T07:26:16.632Z,101968.16
2023-04-18T07:28:43.028Z,101974.19
2023-04-18T07:31:11.489Z,101978.59
2023-04-18T07:33:38.014Z,101974.47
2023-04-18T07:36:04.415Z,101968.47
2023-04-18T07:38:30.810Z,101976.31
2023-04-18T07:40:57.226Z,101969.75
2023-04-18T07:43:23.640Z,101973.81
2023-04-18T07:45:50.010Z,101983.06
2023-04-18T07:48:16.797Z,101979.28
2023-04-18T07:50:43.253Z,101979.97
2023-04-18T07:53:09.634Z,101967.94
2023-04-18T07:55:36.431Z,101985.28
2023-04-18T07:58:02.787Z,101985.97
2023-04-18T08:00:32.485Z,101973.31
2023-04-18T08:02:59.038Z,101993.00
2023-04-18T08:05:25.781Z,101986.16
2023-04-18T08:07:52.824Z,101983.59
2023-04-18T08:10:19.202Z,101990.50
2023-04-18T08:12:45.584Z,101992.13
2023-04-18T08:15:11.945Z,101982.19
2023-04-18T08:17:39.010Z,101994.13
2023-04-18T08:20:08.538Z,101987.22
2023-04-18T08:22:35.921Z,101990.22
2023-04-18T08:25:05.976Z,101992.59
2023-04-18T08:27:32.524Z,101992.03
2023-04-18T08:29:58.962Z,101992.13
2023-04-18T08:32:25.376Z,101990.72
2023-04-18T08:34:51.793Z,101993.63
2023-04-18T08:37:18.222Z,101999.84
2023-04-18T08:39:45.076Z,102004.63
2023-04-18T08:42:11.797Z,101999.31
2023-04-18T08:44:38.223Z,101984.94
2023-04-18T08:47:04.569Z,101999.03
2023-04-18T08:49:31.370Z,101990.84
2023-04-18T08:51:57.948Z,101988.34
2023-04-18T08:54:25.583Z,101997.41
2023-04-18T08:56:53.599Z,101996.81
2023-04-18T08:59:20.512Z,102001.91
2023-04-18T09:01:48.386Z,101996.38
2023-04-18T09:04:15.006Z,101990.19
2023-04-18T09:06:42.805Z,101999.72
2023-04-18T09:09:09.174Z,102000.22
2023-04-18T09:11:35.700Z,102002.25
2023-04-18T09:14:02.465Z,102009.53
2023-04-18T09:16:29.773Z,102009.28
2023-04-18T09:18:56.181Z,102008.66
2023-04-18T09:21:22.531Z,102002.44
2023-04-18T09:23:50.336Z,102006.75
2023-04-18T09:26:16.743Z,102007.00
2023-04-18T09:28:43.184Z,101993.66
2023-04-18T09:31:10.219Z,102005.09
2023-04-18T09:33:37.034Z,102002.75
2023-04-18T09:36:03.634Z,102011.88
2023-04-18T09:38:30.049Z,102000.13
2023-04-18T09:40:56.389Z,102012.25
2023-04-18T09:43:22.867Z,101999.16
2023-04-18T09:45:49.365Z,101996.44
2023-04-18T09:48:16.012Z,101987.50
2023-04-18T09:50:42.403Z,102002.75
2023-04-18T09:53:08.896Z,101990.81
2023-04-18T09:55:35.290Z,101983.25
2023-04-18T09:58:01.647Z,101977.75
2023-04-18T10:00:28.037Z,101985.47
2023-04-18T10:02:54.567Z,101985.75
2023-04-18T10:05:21.446Z,101986.56
2023-04-18T10:07:47.942Z,101995.38
2023-04-18T10:10:14.493Z,101998.69
2023-04-18T10:12:41.284Z,101983.53
2023-04-18T10:15:07.697Z,101990.19
2023-04-18T10:17:34.089Z,101991.50
2023-04-18T10:20:00.477Z,101992.28
2023-04-18T10:22:26.887Z,101980.00
2023-04-18T10:24:53.617Z,101983.25
2023-04-18T10:27:20.194Z,101980.88
2023-04-18T10:29:46.554Z,101971.06
2023-04-18T10:32:12.954Z,101979.72
2023-04-18T10:34:39.363Z,101977.06
2023-04-18T10:37:05.882Z,101973.91
2023-04-18T10:39:32.374Z,101984.38
2023-04-18T10:41:58.855Z,101973.56
2023-04-18T10:44:25.630Z,101979.38
2023-04-18T10:46:52.288Z,101979.72
2023-04-18T10:49:18.764Z,101967.94
2023-04-18T10:51:45.291Z,101959.84
2023-04-18T10:54:11.752Z,101959.34
2023-04-18T10:56:39.184Z,101966.75
2023-04-18T10:59:05.653Z,101975.13
2023-04-18T11:01:33.154Z,101954.97
2023-04-18T11:03:59.831Z,101953.28
2023-04-18T11:06:31.173Z,101946.88
2023-04-18T11:08:57.546Z,101956.63
2023-04-18T11:11:24.603Z,101954.91
2023-04-18T11:13:51.035Z,101959.03
2023-04-18T11:16:17.484Z,101957.13
2023-04-18T11:18:43.815Z,101945.84
2023-04-18T11:21:10.225Z,101946.94
2023-04-18T11:23:36.668Z,101933.41
2023-04-18T11:26:03.271Z,101921.03
2023-04-18T11:28:29.770Z,101946.44
2023-04-18T11:30:56.168Z,101935.31
2023-04-18T11:33:22.712Z,101937.63
2023-04-18T11:35:49.197Z,101930.19
2023-04-18T11:38:16.850Z,101936.59
2023-04-18T11:40:43.261Z,101927.81
2023-04-18T11:43:09.619Z,101938.94
2023-04-18T11:45:36.133Z,101922.19
2023-04-18T11:48:02.618Z,101948.00
2023-04-18T11:50:29.051Z,101934.56
2023-04-18T11:52:55.572Z,101943.13
2023-04-18T11:55:22.023Z,101942.69
2023-04-18T11:57:48.413Z,101933.41
2023-04-18T12:00:14.971Z,101949.41
2023-04-18T12:02:41.699Z,101941.28
2023-04-18T12:05:08.540Z,101937.75
2023-04-18T12:07:35.907Z,101934.53
2023-04-18T12:10:02.473Z,101940.88
2023-04-18T12:12:29.036Z,101925.69
2023-04-18T12:14:55.383Z,101930.34
2023-04-18T12:17:21.774Z,101913.31
2023-04-18T12:19:49.840Z,101935.16
2023-04-18T12:22:16.844Z,101930.44
2023-04-18T12:24:43.354Z,101924.59
2023-04-18T12:27:11.896Z,101925.59
2023-04-18T12:29:38.300Z,101923.00
2023-04-18T12:32:04.731Z,101931.84
2023-04-18T12:34:31.078Z,101922.59
2023-04-18T12:36:57.463Z,101924.53
2023-04-18T12:39:23.831Z,101926.81
2023-04-18T12:41:50.260Z,101932.63
2023-04-18T12:44:16.786Z,101922.94
2023-04-18T12:46:43.279Z,101926.19
2023-04-18T12:49:09.704Z,101908.97
2023-04-18T12:51:36.066Z,101915.78
2023-04-18T12:54:02.512Z,101924.25
2023-04-18T12:56:28.858Z,101915.59
2023-04-18T12:58:55.181Z,101904.59
2023-04-18T13:01:21.977Z,101912.50
2023-04-18T13:03:53.678Z,101916.34
2023-04-18T13:06:26.588Z,101904.66
2023-04-18T13:08:52.961Z,101916.25
2023-04-18T13:11:20.531Z,101901.50
2023-04-18T13:13:46.921Z,101897.03
2023-04-18T13:16:13.286Z,101898.75
2023-04-18T13:18:39.667Z,101906.19
2023-04-18T13:21:06.196Z,101901.47
2023-04-18T13:23:32.565Z,101906.41
2023-04-18T13:25:58.936Z,101909.31
2023-04-18T13:28:25.329Z,101905.19
2023-04-18T13:30:51.693Z,101893.78
2023-04-18T13:33:18.214Z,101905.69
2023-04-18T13:35:44.991Z,101907.16
2023-04-18T13:38:11.360Z,101912.69
2023-04-18T13:40:38.816Z,101880.53
2023-04-18T13:43:05.311Z,101919.00
2023-04-18T13:45:31.634Z,101910.81
2023-04-18T13:47:58.068Z,101911.59
2023-04-18T13:50:24.534Z,101908.59
2023-04-18T13:52:52.010Z,101888.72
2023-04-18T13:55:18.741Z,101892.56
2023-04-18T13:57:45.831Z,101893.41
2023-04-18T14:00:14.111Z,101899.25
2023-04-18T14:02:40.661Z,101897.81
2023-04-18T14:05:07.388Z,101897.16
2023-04-18T14:07:33.999Z,101900.19
2023-04-18T14:10:00.687Z,101896.19
2023-04-18T14:12:27.220Z,101885.91
2023-04-18T14:14:53.678Z,101887.72
2023-04-18T14:17:20.125Z,101885.84
2023-04-18T14:19:46.645Z,101881.50
2023-04-18T14:22:13.003Z,101876.53
2023-04-18T14:24:39.394Z,101893.44
2023-04-18T14:27:05.830Z,101894.91
2023-04-18T14:29:32.194Z,101861.72
2023-04-18T14:31:58.601Z,101886.31
2023-04-18T14:34:24.934Z,101883.19
2023-04-18T14:36:51.333Z,101880.91
2023-04-18T14:39:17.734Z,101882.44
2023-04-18T14:41:45.754Z,101893.75
2023-04-18T14:44:13.462Z,101874.66
2023-04-18T14:46:39.797Z,101871.03
2023-04-18T14:49:06.311Z,101859.34
2023-04-18T14:51:32.755Z,101877.38
2023-04-18T14:53:59.182Z,101884.88
2023-04-18T14:56:25.657Z,101868.53
2023-04-18T14:58:52.002Z,101870.38
2023-04-18T15:01:18.612Z,101873.28
2023-04-18T15:03:45.420Z,101864.28
2023-04-18T15:06:12.063Z,101869.19
2023-04-18T15:08:38.456Z,101876.50
2023-04-18T15:11:05.320Z,101865.28
2023-04-18T15:13:31.772Z,101870.63
2023-04-18T15:15:58.398Z,101872.53
2023-04-18T15:18:24.759Z,101867.25
2023-04-18T15:20:51.157Z,101859.59
2023-04-18T15:23:17.541Z,101876.09
2023-04-18T15:25:43.914Z,101874.69
2023-04-18T15:28:10.396Z,101872.19
2023-04-18T15:30:36.719Z,101878.78
2023-04-18T15:33:03.266Z,101876.06
2023-04-18T15:35:29.699Z,101865.97
2023-04-18T15:37:56.501Z,101863.06
2023-04-18T15:40:22.917Z,101862.56
2023-04-18T15:42:50.920Z,101861.31
2023-04-18T15:45:17.350Z,101858.63
2023-04-18T15:47:44.218Z,101859.75
2023-04-18T15:50:11.048Z,101860.03
2023-04-18T15:52:37.474Z,101855.41
2023-04-18T15:55:04.910Z,101854.56
2023-04-18T15:57:31.312Z,101855.94
2023-04-18T15:59:59.325Z,101854.16
2023-04-18T16:02:25.975Z,101864.13
2023-04-18T16:04:52.407Z,101860.69
2023-04-18T16:07:18.817Z,101847.16
2023-04-18T16:09:45.204Z,101850.00
2023-04-18T16:12:11.665Z,101850.63
2023-04-18T16:14:38.056Z,101854.50
2023-04-18T16:17:04.691Z,101847.09
2023-04-18T16:19:31.139Z,101851.53
2023-04-18T16:21:57.551Z,101846.09
2023-04-18T16:24:25.591Z,101826.06
2023-04-18T16:26:53.473Z,101842.91
2023-04-18T16:29:19.880Z,101855.72
2023-04-18T16:31:46.582Z,101850.91
2023-04-18T16:34:13.331Z,101838.72
2023-04-18T16:36:39.909Z,101847.34
2023-04-18T16:39:06.253Z,101851.22
2023-04-18T16:41:32.646Z,101852.38
2023-04-18T16:43:59.009Z,101854.28
2023-04-18T16:46:25.533Z,101855.84
2023-04-18T16:48:52.647Z,101850.44
2023-04-18T16:51:19.636Z,101849.41
2023-04-18T16:53:47.455Z,101835.00
2023-04-18T16:56:15.362Z,101847.78
2023-04-18T16:58:41.752Z,101848.50
2023-04-18T17:01:08.793Z,101847.94
2023-04-18T17:03:36.588Z,101850.34
2023-04-18T17:06:03.322Z,101847.84
2023-04-18T17:08:31.939Z,101852.63
2023-04-18T17:10:59.708Z,101855.06
2023-04-18T17:13:27.275Z,101863.25
2023-04-18T17:15:53.956Z,101855.41
2023-04-18T17:18:21.847Z,101860.00
2023-04-18T17:20:49.309Z,101852.41
2023-04-18T17:23:15.854Z,101853.59
2023-04-18T17:25:42.549Z,101856.50
2023-04-18T17:28:09.538Z,101856.56
2023-04-18T17:30:36.794Z,101861.94
2023-04-18T17:33:03.270Z,101856.34
2023-04-18T17:35:30.009Z,101860.28
2023-04-18T17:37:56.792Z,101859.78
2023-04-18T17:40:23.426Z,101863.50
2023-04-18T17:42:50.581Z,101856.09
2023-04-18T17:45:17.348Z,101866.84
2023-04-18T17:47:43.784Z,101863.56
2023-04-18T17:50:10.346Z,101868.66
2023-04-18T17:52:37.289Z,101862.25
2023-04-18T17:55:04.341Z,101870.56
2023-04-18T17:57:32.934Z,101870.25
2023-04-18T17:59:59.326Z,101869.44
2023-04-18T18:02:28.249Z,101874.69
2023-04-18T18:04:54.735Z,101874.66
2023-04-18T18:07:21.234Z,101878.59
2023-04-18T18:09:47.810Z,101877.38
2023-04-18T18:12:14.632Z,101888.19
2023-04-18T18:14:41.074Z,101887.31
2023-04-18T18:17:07.672Z,101884.97
2023-04-18T18:19:34.094Z,101873.19
2023-04-18T18:22:00.551Z,101897.41
2023-04-18T18:24:27.435Z,101888.72
2023-04-18T18:26:54.032Z,101883.97
2023-04-18T18:29:20.399Z,101891.31
2023-04-18T18:31:46.904Z,101894.53
2023-04-18T18:34:13.505Z,101895.09
2023-04-18T18:36:40.190Z,101901.53
2023-04-18T18:39:06.555Z,101901.66
2023-04-18T18:41:33.069Z,101901.28
2023-04-18T18:43:59.484Z,101897.16
2023-04-18T18:46:27.651Z,101906.63
2023-04-18T18:48:54.681Z,101900.84
2023-04-18T18:51:22.046Z,101909.31
2023-04-18T18:53:48.698Z,101913.91
2023-04-18T18:56:15.350Z,101917.97
2023-04-18T18:58:43.712Z,101915.81
2023-04-18T19:01:11.395Z,101932.53
2023-04-18T19:03:37.949Z,101919.63
2023-04-18T19:06:05.802Z,101932.13
2023-04-18T19:08:32.237Z,101930.56
2023-04-18T19:10:58.685Z,101931.72
2023-04-18T19:13:25.107Z,101931.91
2023-04-18T19:15:51.906Z,101939.28
2023-04-18T19:18:20.432Z,101936.75
2023-04-18T19:20:47.032Z,101947.28
2023-04-18T19:23:13.529Z,101940.88
2023-04-18T19:25:39.920Z,101950.69
2023-04-18T19:28:06.538Z,101954.31
2023-04-18T19:30:32.978Z,101950.91
2023-04-18T19:33:00.039Z,101953.41
2023-04-18T19:35:26.454Z,101955.41
2023-04-18T19:37:55.805Z,101948.13
2023-04-18T19:40:23.727Z,101958.56
2023-04-18T19:42:50.746Z,101948.72
2023-04-18T19:45:17.140Z,101957.41
2023-04-18T19:47:44.894Z,101962.56
2023-04-18T19:50:11.930Z,101968.06
2023-04-18T19:52:39.081Z,101960.78
2023-04-18T19:55:05.615Z,101960.59
2023-04-18T19:57:32.129Z,101956.38
2023-04-18T19:59:58.584Z,101962.22
2023-04-18T20:02:25.158Z,101954.41
2023-04-18T20:04:51.924Z,101967.50
2023-04-18T20:07:18.814Z,101961.31
2023-04-18T20:09:45.321Z,101960.13
2023-04-18T20:12:12.177Z,101972.59
2023-04-18T20:14:38.662Z,101964.97
2023-04-18T20:17:05.304Z,101967.63
2023-04-18T20:19:31.828Z,101970.81
2023-04-18T20:21:58.217Z,101964.94
2023-04-18T20:24:27.889Z,101966.75
2023-04-18T20:26:54.526Z,101964.41
2023-04-18T20:29:20.883Z,101967.69
2023-04-18T20:31:47.736Z,101966.47
2023-04-18T20:34:14.078Z,101989.69
2023-04-18T20:36:41.647Z,101980.72
2023-04-18T20:39:08.367Z,101985.25
2023-04-18T20:41:36.541Z,101977.44
2023-04-18T20:44:05.441Z,101993.81
2023-04-18T20:46:32.604Z,101995.38
2023-04-18T20:48:59.494Z,101992.13
2023-04-18T20:51:26.747Z,101980.03
2023-04-18T20:53:53.973Z,101992.50
2023-04-18T20:56:20.384Z,101982.31
2023-04-18T20:58:46.975Z,101996.69
2023-04-18T21:01:13.513Z,102001.78
2023-04-18T21:03:40.036Z,101994.59
2023-04-18T21:06:06.495Z,101996.59
2023-04-18T21:08:35.044Z,102001.75
2023-04-18T21:11:01.417Z,102002.31
2023-04-18T21:13:27.790Z,102003.88
2023-04-18T21:15:57.002Z,102002.78
2023-04-18T21:18:23.614Z,102007.72
2023-04-18T21:20:50.084Z,102009.81
2023-04-18T21:23:18.238Z,102008.72
2023-04-18T21:25:45.291Z,102008.72
2023-04-18T21:28:11.754Z,102010.50
2023-04-18T21:30:38.340Z,102007.59
2023-04-18T21:33:04.793Z,102016.09
2023-04-18T21:35:31.345Z,102016.63
2023-04-18T21:37:57.792Z,102005.00
2023-04-18T21:40:24.426Z,102007.72
2023-04-18T21:42:53.886Z,102012.47
2023-04-18T21:45:20.301Z,102012.03
2023-04-18T21:47:46.842Z,102004.28
2023-04-18T21:50:13.399Z,102019.81
2023-04-18T21:52:39.912Z,102006.31
2023-04-18T21:55:06.373Z,102007.50
2023-04-18T21:57:32.914Z,102009.47
2023-04-18T21:59:59.286Z,102006.25
2023-04-18T22:02:26.206Z,102003.88
2023-04-18T22:04:52.640Z,102007.88
2023-04-18T22:07:19.010Z,102013.38
2023-04-18T22:09:45.357Z,102004.28
2023-04-18T22:12:14.197Z,101999.88
2023-04-18T22:14:42.082Z,102003.03
2023-04-18T22:17:09.434Z,102003.31
2023-04-18T22:19:36.612Z,102008.06
2023-04-18T22:22:03.050Z,102016.69
2023-04-18T22:24:29.386Z,102017.94
2023-04-18T22:26:55.802Z,102008.06
2023-04-18T22:29:22.178Z,102006.47
2023-04-18T22:31:48.532Z,102004.88
2023-04-18T22:34:15.663Z,102011.13
2023-04-18T22:36:42.777Z,102010.50
2023-04-18T22:39:09.281Z,102011.22
2023-04-18T22:41:35.720Z,102004.28
2023-04-18T22:44:02.090Z,102001.47
2023-04-18T22:46:28.635Z,102002.41
2023-04-18T22:48:55.186Z,102001.91
2023-04-18T22:51:23.769Z,102008.63
2023-04-18T22:53:50.334Z,102007.59
2023-04-18T22:56:16.701Z,102008.84
2023-04-18T22:58:43.078Z,102006.16
2023-04-18T23:01:09.471Z,102011.38
2023-04-18T23:03:36.128Z,102011.25
2023-04-18T23:06:02.565Z,102013.09
2023-04-18T23:08:28.935Z,101999.78
2023-04-18T23:10:55.442Z,102001.22
2023-04-18T23:13:21.783Z,102000.94
2023-04-18T23:15:48.209Z,102000.56
2023-04-18T23:18:14.619Z,101999.31
2023-04-18T23:20:40.965Z,102004.56
2023-04-18T23:23:07.334Z,102000.22
2023-04-18T23:25:33.849Z,101995.88
2023-04-18T23:28:00.304Z,101999.63
2023-04-18T23:30:26.751Z,101995.09
2023-04-18T23:32:53.140Z,101994.16
2023-04-18T23:35:19.588Z,101994.69
2023-04-18T23:37:46.152Z,101997.84
2023-04-18T23:40:12.579Z,101997.69
2023-04-18T23:42:38.983Z,102001.59
2023-04-18T23:45:05.958Z,101998.41
2023-04-18T23:47:32.407Z,101999.31
2023-04-18T23:49:58.824Z,102003.44
2023-04-18T23:52:25.256Z,101990.41
2023-04-18T23:54:51.914Z,101996.47
2023-04-18T23:57:18.405Z,101992.13
2023-04-18T23:59:44.756Z,101984.84
